Seastreak Highlands — WDE4031 — position and weather

sailwx.info

Track history (hours):
 
Tides and Currents Weather Stations Pressure Air Temp Water Temp Dewpoint Dewpoint Depression Visibility Wind Speed Wind Dir Waves Ship Positions

Seastreak Highlands

Owner: Seastreak llc, atlantic highlands, NJ. More information available from US FCC via Universal Licensing System and Coast Guard Vessel Documentation Center.

Last reported at 2014-Oct-02 09:32 UTC. Time now 2014-Oct-02 10:42 UTC.
Position N 40°25' W 073°60'.

Length 44 m; draft 2 m.

Type: High speed craft. MMSI: 367347670.

Date/timePositionNaut miles runAvg speedWind from/ knotsBaromVisibWave heightAir tempDewpointWater temp
2014-Oct-02 09:32N 40°25' W 073°60'1 0.1
2014-Oct-01 23:18N 40°25' W 074°00'1823.8
2014-Oct-01 22:34N 40°43' W 073°58'1813.3
2014-Oct-01 21:13N 40°25' W 074°00'1725.6
2014-Oct-01 20:33N 40°42' W 074°00'3 2.9
2014-Oct-01 19:33N 40°45' W 073°58'0 0.0
2014-Oct-01 18:33N 40°45' W 073°58'0 0.0
2014-Oct-01 17:33N 40°45' W 073°58'0 0.0
2014-Oct-01 16:33N 40°45' W 073°58'0 0.0
2014-Oct-01 15:33N 40°45' W 073°58'0 0.0
2014-Oct-01 14:33N 40°45' W 073°58'3 3.0
2014-Oct-01 13:34N 40°42' W 074°00'8 7.8
2014-Oct-01 12:29N 40°34' W 074°03'6 7.0
2014-Oct-01 11:34N 40°40' W 074°02'15 7.6
2014-Oct-01 09:32N 40°25' W 074°00'0 0.0
2014-Sep-30 23:21N 40°25' W 074°00'1924.7
2014-Sep-30 22:34N 40°44' W 073°58'1914.6
2014-Sep-30 21:15N 40°25' W 074°00'1724.9
2014-Sep-30 20:33N 40°42' W 074°00'1110.5
2014-Sep-30 19:33N 40°32' W 074°02'0 0.1
2014-Sep-30 14:32N 40°31' W 074°02'1010.1
2014-Sep-30 13:34N 40°41' W 074°01'7 6.9
2014-Sep-30 12:34N 40°34' W 074°02'5 4.8
2014-Sep-30 11:34N 40°39' W 074°02'1511.6
2014-Sep-30 10:18N 40°25' W 073°60'2 2.3
2014-Sep-30 09:31N 40°25' W 074°02'2 0.2
2014-Sep-30 00:33N 40°25' W 073°60'0 0.2
2014-Sep-29 23:33N 40°25' W 073°60'2019.9
2014-Sep-29 22:33N 40°45' W 073°58'1919.3
2014-Sep-29 21:33N 40°26' W 074°01'1716.8
2014-Sep-29 20:34N 40°42' W 073°60'3 2.7
2014-Sep-29 19:33N 40°45' W 073°58'0 0.0
2014-Sep-29 18:33N 40°45' W 073°58'0 0.0
2014-Sep-29 17:33N 40°45' W 073°58'0 0.0
2014-Sep-29 16:33N 40°45' W 073°58'0 0.0
2014-Sep-29 15:33N 40°45' W 073°58'0 0.0
2014-Sep-29 14:33N 40°45' W 073°58'8 8.2
2014-Sep-29 13:33N 40°37' W 074°03'1 1.5
2014-Sep-29 12:33N 40°36' W 074°02'2 1.8
2014-Sep-29 11:33N 40°37' W 074°03'1313.1
2014-Sep-29 10:34N 40°25' W 073°60'2 1.8
2014-Sep-29 09:33N 40°25' W 074°02'2 0.2
2014-Sep-28 22:18N 40°25' W 073°60'1723.4
2014-Sep-28 21:34N 40°42' W 074°00'2824.5
2014-Sep-28 20:25N 41°09' W 073°54'6 1.0
2014-Sep-28 14:30N 41°15' W 073°58'2121.8
2014-Sep-28 13:34N 40°54' W 073°55'1818.2
2014-Sep-28 12:34N 40°37' W 074°03'1212.3
2014-Sep-28 11:33N 40°25' W 073°60'2 0.1
2014-Sep-27 23:06N 40°25' W 074°02'1 1.6
2014-Sep-27 22:11N 40°25' W 074°00'1723.5
2014-Sep-27 21:28N 40°42' W 074°00'29 4.1
2014-Sep-27 14:23N 41°11' W 073°56'2125.5
2014-Sep-27 13:33N 40°50' W 073°57'1616.4
2014-Sep-27 12:33N 40°34' W 074°02'10 0.9
2014-Sep-27 01:32N 40°25' W 073°60'1 1.2
2014-Sep-27 00:29N 40°25' W 074°01'1819.8
2014-Sep-26 23:33N 40°44' W 073°58'1916.4
2014-Sep-26 22:24N 40°25' W 073°60'1719.9
2014-Sep-26 21:34N 40°41' W 074°01'5 5.2
2014-Sep-26 20:33N 40°36' W 074°02'7 7.4
2014-Sep-26 19:33N 40°29' W 074°02'1515.3
2014-Sep-26 18:34N 40°44' W 073°58'2 2.5
2014-Sep-26 17:33N 40°42' W 074°00'0 0.0
2014-Sep-26 16:34N 40°42' W 074°00'0 0.0
2014-Sep-26 15:34N 40°42' W 074°00'3 2.8
2014-Sep-26 14:31N 40°45' W 073°58'3 3.5
2014-Sep-26 13:34N 40°42' W 074°00'8 7.4
2014-Sep-26 12:32N 40°34' W 074°02'6 5.8
2014-Sep-26 11:34N 40°40' W 074°02'1515.0
2014-Sep-26 10:33N 40°25' W 073°60'0 0.4
2014-Sep-26 09:34N 40°25' W 074°00'0 0.0
2014-Sep-26 00:30N 40°25' W 074°00'1920.0
2014-Sep-25 23:32N 40°44' W 073°58'1915.5
2014-Sep-25 22:18N 40°25' W 074°01'1621.7
2014-Sep-25 21:33N 40°42' W 074°01'9 6.9
2014-Sep-25 20:19N 40°33' W 074°02'12 6.7
2014-Sep-25 18:31N 40°45' W 073°58'0 0.0
2014-Sep-25 16:03N 40°45' W 073°58'0 0.0
2014-Sep-25 15:33N 40°45' W 073°58'3 1.7
2014-Sep-25 13:33N 40°42' W 074°00'8 6.9
2014-Sep-25 12:26N 40°34' W 074°03'5 5.3
2014-Sep-25 11:34N 40°39' W 074°02'1413.6
2014-Sep-25 10:30N 40°25' W 073°60'2 1.9
2014-Sep-25 09:32N 40°25' W 074°02'0 0.0
2014-Sep-25 01:33N 40°25' W 074°02'0 0.0
2014-Sep-25 00:33N 40°25' W 074°02'2019.7
2014-Sep-24 23:34N 40°45' W 073°58'2019.8
2014-Sep-24 22:33N 40°25' W 073°60'1717.7
2014-Sep-24 21:33N 40°42' W 074°01'7 6.6
2014-Sep-24 20:33N 40°36' W 074°03'0 0.3
2014-Sep-24 19:17N 40°36' W 074°03'9 2.4
2014-Sep-24 15:29N 40°45' W 073°58'0 0.0
2014-Sep-24 14:31N 40°45' W 073°58'4 4.5
2014-Sep-24 13:33N 40°41' W 074°01'7 6.2
2014-Sep-24 12:30N 40°34' W 074°03'5 4.9
2014-Sep-24 11:34N 40°39' W 074°02'14 6.9
2014-Sep-24 09:33N 40°25' W 074°02'7 0.8
2014-Sep-24 00:12N 40°32' W 074°02'1218.8
2014-Sep-23 23:34N 40°44' W 073°58'1916.7
2014-Sep-23 22:26N 40°25' W 074°01'1618.8
2014-Sep-23 21:33N 40°42' W 074°01'5 5.3
2014-Sep-23 20:34N 40°37' W 074°03'9 8.7
2014-Sep-23 19:33N 40°28' W 074°02'1717.1
2014-Sep-23 18:33N 40°45' W 073°58'0 0.0
2014-Sep-23 17:33N 40°45' W 073°58'1716.3
2014-Sep-23 16:30N 40°28' W 074°01'1112.1
2014-Sep-23 15:34N 40°39' W 074°02'6 6.4
2014-Sep-23 14:33N 40°45' W 073°58'5 5.0
2014-Sep-23 13:34N 40°40' W 074°02'6 5.9
2014-Sep-23 12:33N 40°34' W 074°03'4 4.5
2014-Sep-23 11:34N 40°39' W 074°02'14 1.4
2014-Sep-23 01:25N 40°25' W 074°02'1315.0
2014-Sep-23 00:32N 40°35' W 073°51'1010.4
2014-Sep-22 23:33N 40°42' W 074°00'9 7.3
2014-Sep-22 22:17N 40°34' W 073°53'1013.2
2014-Sep-22 21:33N 40°42' W 074°00'5 2.7
2014-Sep-22 19:33N 40°37' W 074°03'5 5.4
2014-Sep-22 18:33N 40°42' W 074°00'0 0.0
2014-Sep-22 17:33N 40°42' W 074°00'0 0.0
2014-Sep-22 16:33N 40°42' W 074°00'0 0.0
2014-Sep-22 15:33N 40°42' W 074°00'0 0.0
2014-Sep-22 14:33N 40°42' W 074°00'1 1.3
2014-Sep-22 13:34N 40°42' W 073°59'9 9.3
2014-Sep-22 12:33N 40°35' W 073°51'1010.0
2014-Sep-22 11:34N 40°42' W 074°00'1010.3
2014-Sep-22 10:33N 40°35' W 073°50'  
Track history (hours):
 
Tides and Currents Weather Stations Pressure Air Temp Water Temp Dewpoint Dewpoint Depression Visibility Wind Speed Wind Dir Waves Ship Positions

Seastreak Highlands

Owner: Seastreak llc, atlantic highlands, NJ. More information available from US FCC via Universal Licensing System and Coast Guard Vessel Documentation Center.

Last reported at 2014-Oct-02 09:32 UTC. Time now 2014-Oct-02 10:42 UTC.
Position N 40°25' W 073°60'.

Length 44 m; draft 2 m.

Type: High speed craft. MMSI: 367347670.

Date/timePositionNaut miles runAvg speedWind from/ knotsBaromVisibWave heightAir tempDewpointWater temp
2014-Oct-02 09:32N 40°25' W 073°60'1 0.1
2014-Oct-01 23:18N 40°25' W 074°00'1823.8
2014-Oct-01 22:34N 40°43' W 073°58'1813.3
2014-Oct-01 21:13N 40°25' W 074°00'1725.6
2014-Oct-01 20:33N 40°42' W 074°00'3 2.9
2014-Oct-01 19:33N 40°45' W 073°58'0 0.0
2014-Oct-01 18:33N 40°45' W 073°58'0 0.0
2014-Oct-01 17:33N 40°45' W 073°58'0 0.0
2014-Oct-01 16:33N 40°45' W 073°58'0 0.0
2014-Oct-01 15:33N 40°45' W 073°58'0 0.0
2014-Oct-01 14:33N 40°45' W 073°58'3 3.0
2014-Oct-01 13:34N 40°42' W 074°00'8 7.8
2014-Oct-01 12:29N 40°34' W 074°03'6 7.0
2014-Oct-01 11:34N 40°40' W 074°02'15 7.6
2014-Oct-01 09:32N 40°25' W 074°00'0 0.0
2014-Sep-30 23:21N 40°25' W 074°00'1924.7
2014-Sep-30 22:34N 40°44' W 073°58'1914.6
2014-Sep-30 21:15N 40°25' W 074°00'1724.9
2014-Sep-30 20:33N 40°42' W 074°00'1110.5
2014-Sep-30 19:33N 40°32' W 074°02'0 0.1
2014-Sep-30 14:32N 40°31' W 074°02'1010.1
2014-Sep-30 13:34N 40°41' W 074°01'7 6.9
2014-Sep-30 12:34N 40°34' W 074°02'5 4.8
2014-Sep-30 11:34N 40°39' W 074°02'1511.6
2014-Sep-30 10:18N 40°25' W 073°60'2 2.3
2014-Sep-30 09:31N 40°25' W 074°02'2 0.2
2014-Sep-30 00:33N 40°25' W 073°60'0 0.2
2014-Sep-29 23:33N 40°25' W 073°60'2019.9
2014-Sep-29 22:33N 40°45' W 073°58'1919.3
2014-Sep-29 21:33N 40°26' W 074°01'1716.8
2014-Sep-29 20:34N 40°42' W 073°60'3 2.7
2014-Sep-29 19:33N 40°45' W 073°58'0 0.0
2014-Sep-29 18:33N 40°45' W 073°58'0 0.0
2014-Sep-29 17:33N 40°45' W 073°58'0 0.0
2014-Sep-29 16:33N 40°45' W 073°58'0 0.0
2014-Sep-29 15:33N 40°45' W 073°58'0 0.0
2014-Sep-29 14:33N 40°45' W 073°58'8 8.2
2014-Sep-29 13:33N 40°37' W 074°03'1 1.5
2014-Sep-29 12:33N 40°36' W 074°02'2 1.8
2014-Sep-29 11:33N 40°37' W 074°03'1313.1
2014-Sep-29 10:34N 40°25' W 073°60'2 1.8
2014-Sep-29 09:33N 40°25' W 074°02'2 0.2
2014-Sep-28 22:18N 40°25' W 073°60'1723.4
2014-Sep-28 21:34N 40°42' W 074°00'2824.5
2014-Sep-28 20:25N 41°09' W 073°54'6 1.0
2014-Sep-28 14:30N 41°15' W 073°58'2121.8
2014-Sep-28 13:34N 40°54' W 073°55'1818.2
2014-Sep-28 12:34N 40°37' W 074°03'1212.3
2014-Sep-28 11:33N 40°25' W 073°60'2 0.1
2014-Sep-27 23:06N 40°25' W 074°02'1 1.6
2014-Sep-27 22:11N 40°25' W 074°00'1723.5
2014-Sep-27 21:28N 40°42' W 074°00'29 4.1
2014-Sep-27 14:23N 41°11' W 073°56'2125.5
2014-Sep-27 13:33N 40°50' W 073°57'1616.4
2014-Sep-27 12:33N 40°34' W 074°02'10 0.9
2014-Sep-27 01:32N 40°25' W 073°60'1 1.2
2014-Sep-27 00:29N 40°25' W 074°01'1819.8
2014-Sep-26 23:33N 40°44' W 073°58'1916.4
2014-Sep-26 22:24N 40°25' W 073°60'1719.9
2014-Sep-26 21:34N 40°41' W 074°01'5 5.2
2014-Sep-26 20:33N 40°36' W 074°02'7 7.4
2014-Sep-26 19:33N 40°29' W 074°02'1515.3
2014-Sep-26 18:34N 40°44' W 073°58'2 2.5
2014-Sep-26 17:33N 40°42' W 074°00'0 0.0
2014-Sep-26 16:34N 40°42' W 074°00'0 0.0
2014-Sep-26 15:34N 40°42' W 074°00'3 2.8
2014-Sep-26 14:31N 40°45' W 073°58'3 3.5
2014-Sep-26 13:34N 40°42' W 074°00'8 7.4
2014-Sep-26 12:32N 40°34' W 074°02'6 5.8
2014-Sep-26 11:34N 40°40' W 074°02'1515.0
2014-Sep-26 10:33N 40°25' W 073°60'0 0.4
2014-Sep-26 09:34N 40°25' W 074°00'0 0.0
2014-Sep-26 00:30N 40°25' W 074°00'1920.0
2014-Sep-25 23:32N 40°44' W 073°58'1915.5
2014-Sep-25 22:18N 40°25' W 074°01'1621.7
2014-Sep-25 21:33N 40°42' W 074°01'9 6.9
2014-Sep-25 20:19N 40°33' W 074°02'12 6.7
2014-Sep-25 18:31N 40°45' W 073°58'0 0.0
2014-Sep-25 16:03N 40°45' W 073°58'0 0.0
2014-Sep-25 15:33N 40°45' W 073°58'3 1.7
2014-Sep-25 13:33N 40°42' W 074°00'8 6.9
2014-Sep-25 12:26N 40°34' W 074°03'5 5.3
2014-Sep-25 11:34N 40°39' W 074°02'1413.6
2014-Sep-25 10:30N 40°25' W 073°60'2 1.9
2014-Sep-25 09:32N 40°25' W 074°02'0 0.0
2014-Sep-25 01:33N 40°25' W 074°02'0 0.0
2014-Sep-25 00:33N 40°25' W 074°02'2019.7
2014-Sep-24 23:34N 40°45' W 073°58'2019.8
2014-Sep-24 22:33N 40°25' W 073°60'1717.7
2014-Sep-24 21:33N 40°42' W 074°01'7 6.6
2014-Sep-24 20:33N 40°36' W 074°03'0 0.3
2014-Sep-24 19:17N 40°36' W 074°03'9 2.4
2014-Sep-24 15:29N 40°45' W 073°58'0 0.0
2014-Sep-24 14:31N 40°45' W 073°58'4 4.5
2014-Sep-24 13:33N 40°41' W 074°01'7 6.2
2014-Sep-24 12:30N 40°34' W 074°03'5 4.9
2014-Sep-24 11:34N 40°39' W 074°02'14 6.9
2014-Sep-24 09:33N 40°25' W 074°02'7 0.8
2014-Sep-24 00:12N 40°32' W 074°02'1218.8
2014-Sep-23 23:34N 40°44' W 073°58'1916.7
2014-Sep-23 22:26N 40°25' W 074°01'1618.8
2014-Sep-23 21:33N 40°42' W 074°01'5 5.3
2014-Sep-23 20:34N 40°37' W 074°03'9 8.7
2014-Sep-23 19:33N 40°28' W 074°02'1717.1
2014-Sep-23 18:33N 40°45' W 073°58'0 0.0
2014-Sep-23 17:33N 40°45' W 073°58'1716.3
2014-Sep-23 16:30N 40°28' W 074°01'1112.1
2014-Sep-23 15:34N 40°39' W 074°02'6 6.4
2014-Sep-23 14:33N 40°45' W 073°58'5 5.0
2014-Sep-23 13:34N 40°40' W 074°02'6 5.9
2014-Sep-23 12:33N 40°34' W 074°03'4 4.5
2014-Sep-23 11:34N 40°39' W 074°02'14 1.4
2014-Sep-23 01:25N 40°25' W 074°02'1315.0
2014-Sep-23 00:32N 40°35' W 073°51'1010.4
2014-Sep-22 23:33N 40°42' W 074°00'9 7.3
2014-Sep-22 22:17N 40°34' W 073°53'1013.2
2014-Sep-22 21:33N 40°42' W 074°00'5 2.7
2014-Sep-22 19:33N 40°37' W 074°03'5 5.4
2014-Sep-22 18:33N 40°42' W 074°00'0 0.0
2014-Sep-22 17:33N 40°42' W 074°00'0 0.0
2014-Sep-22 16:33N 40°42' W 074°00'0 0.0
2014-Sep-22 15:33N 40°42' W 074°00'0 0.0
2014-Sep-22 14:33N 40°42' W 074°00'1 1.3
2014-Sep-22 13:34N 40°42' W 073°59'9 9.3
2014-Sep-22 12:33N 40°35' W 073°51'1010.0
2014-Sep-22 11:34N 40°42' W 074°00'1010.3
2014-Sep-22 10:33N 40°35' W 073°50'  

Dump ship's entire track history